createdAt,value
2023-05-06T00:01:04.698Z,2.70
2023-05-06T00:03:06.979Z,2.85
2023-05-06T00:05:09.573Z,2.90
2023-05-06T00:09:14.960Z,2.30
2023-05-06T00:11:17.132Z,3.75
2023-05-06T00:13:19.293Z,3.20
2023-05-06T00:15:21.569Z,3.65
2023-05-06T00:17:23.781Z,3.33
2023-05-06T00:19:25.981Z,2.67
2023-05-06T00:21:28.346Z,3.08
2023-05-06T00:23:30.506Z,3.08
2023-05-06T00:25:32.661Z,2.72
2023-05-06T00:27:34.845Z,3.25
2023-05-06T00:29:36.970Z,3.03
2023-05-06T00:31:39.205Z,3.25
2023-05-06T00:33:41.445Z,3.00
2023-05-06T00:35:43.596Z,3.20
2023-05-06T00:37:49.179Z,3.03
2023-05-06T00:39:51.406Z,3.00
2023-05-06T00:41:53.623Z,2.65
2023-05-06T00:43:55.800Z,2.45
2023-05-06T00:45:58.015Z,2.55
2023-05-06T00:48:00.591Z,2.45
2023-05-06T00:52:05.296Z,2.70
2023-05-06T00:54:07.547Z,2.50
2023-05-06T00:56:09.800Z,2.75
2023-05-06T00:58:11.987Z,2.85
2023-05-06T01:00:14.273Z,2.40
2023-05-06T01:02:16.615Z,2.47
2023-05-06T01:04:19.069Z,2.58
2023-05-06T01:06:25.752Z,2.75
2023-05-06T01:08:35.568Z,2.50
2023-05-06T01:10:40.567Z,2.55
2023-05-06T01:12:58.828Z,2.53
2023-05-06T01:15:06.505Z,2.63
2023-05-06T01:17:12.252Z,2.30
2023-05-06T01:19:18.702Z,2.40
2023-05-06T01:21:22.154Z,2.50
2023-05-06T01:23:24.360Z,2.45
2023-05-06T01:25:26.494Z,2.47
2023-05-06T01:27:29.185Z,2.17
2023-05-06T01:31:37.948Z,2.55
2023-05-06T01:33:55.604Z,3.05
2023-05-06T01:36:16.408Z,1.90
2023-05-06T01:38:26.592Z,2.42
2023-05-06T01:40:30.330Z,2.75
2023-05-06T01:42:33.215Z,2.10
2023-05-06T01:44:37.246Z,2.90
2023-05-06T01:46:39.681Z,2.70
2023-05-06T01:48:42.203Z,2.72
2023-05-06T01:50:44.479Z,2.65
2023-05-06T01:52:46.685Z,2.33
2023-05-06T01:54:48.944Z,2.65
2023-05-06T01:56:51.383Z,2.28
2023-05-06T01:58:53.643Z,2.30
2023-05-06T02:00:55.798Z,2.20
2023-05-06T02:02:57.992Z,2.25
2023-05-06T02:05:00.383Z,2.30
2023-05-06T02:07:02.574Z,2.42
2023-05-06T02:09:04.815Z,2.20
2023-05-06T02:11:07.062Z,2.20
2023-05-06T02:13:09.937Z,2.20
2023-05-06T02:15:12.270Z,2.35
2023-05-06T02:17:14.431Z,2.33
2023-05-06T02:19:17.040Z,2.22
2023-05-06T02:21:19.386Z,2.17
2023-05-06T02:23:21.567Z,2.35
2023-05-06T02:25:23.767Z,2.20
2023-05-06T02:27:26.024Z,2.47
2023-05-06T02:29:28.192Z,1.90
2023-05-06T02:31:30.602Z,2.47
2023-05-06T02:33:32.847Z,2.60
2023-05-06T02:35:35.133Z,2.28
2023-05-06T02:37:37.315Z,2.10
2023-05-06T02:39:39.490Z,1.92
2023-05-06T02:41:41.694Z,2.20
2023-05-06T02:43:43.863Z,2.28
2023-05-06T02:45:46.318Z,2.40
2023-05-06T02:47:48.654Z,2.15
2023-05-06T02:49:50.940Z,2.30
2023-05-06T02:51:53.157Z,2.20
2023-05-06T02:53:55.350Z,2.30
2023-05-06T02:55:57.497Z,2.40
2023-05-06T02:57:59.667Z,2.50
2023-05-06T03:00:01.995Z,2.10
2023-05-06T03:02:04.192Z,2.20
2023-05-06T03:04:07.177Z,2.33
2023-05-06T03:06:09.397Z,2.33
2023-05-06T03:08:11.569Z,2.33
2023-05-06T03:10:13.752Z,2.20
2023-05-06T03:12:15.927Z,1.85
2023-05-06T03:14:18.146Z,2.17
2023-05-06T03:16:20.404Z,1.90
2023-05-06T03:18:22.756Z,2.60
2023-05-06T03:20:25.056Z,2.25
2023-05-06T03:22:27.242Z,2.20
2023-05-06T03:24:29.577Z,2.00
2023-05-06T03:26:32.930Z,2.00
2023-05-06T03:28:35.259Z,2.10
2023-05-06T03:30:37.473Z,2.45
2023-05-06T03:32:39.679Z,1.92
2023-05-06T03:34:41.907Z,2.10
2023-05-06T03:36:44.001Z,2.10
2023-05-06T03:38:46.268Z,2.00
2023-05-06T03:40:48.595Z,2.20
2023-05-06T03:42:50.933Z,2.53
2023-05-06T03:44:53.121Z,2.03
2023-05-06T03:46:55.322Z,2.10
2023-05-06T03:48:58.379Z,2.22
2023-05-06T03:51:00.580Z,1.70
2023-05-06T03:53:02.821Z,2.00
2023-05-06T03:55:05.111Z,2.17
2023-05-06T03:57:07.321Z,1.98
2023-05-06T03:59:09.516Z,1.80
2023-05-06T04:01:11.719Z,2.15
2023-05-06T04:03:14.143Z,2.13
2023-05-06T04:05:16.480Z,1.90
2023-05-06T04:07:18.672Z,1.73
2023-05-06T04:09:20.953Z,2.00
2023-05-06T04:11:23.237Z,1.98
2023-05-06T04:13:25.462Z,1.75
2023-05-06T04:15:31.971Z,2.00
2023-05-06T04:17:34.178Z,2.10
2023-05-06T04:19:36.577Z,1.55
2023-05-06T04:21:38.758Z,1.40
2023-05-06T04:23:41.622Z,1.73
2023-05-06T04:25:48.618Z,1.85
2023-05-06T04:27:50.847Z,1.95
2023-05-06T04:29:53.014Z,1.98
2023-05-06T04:31:55.514Z,1.90
2023-05-06T04:33:59.004Z,1.73
2023-05-06T04:36:01.687Z,2.05
2023-05-06T04:38:03.913Z,1.85
2023-05-06T04:40:06.433Z,1.83
2023-05-06T04:42:08.625Z,1.75
2023-05-06T04:44:11.087Z,2.10
2023-05-06T04:46:13.303Z,1.95
2023-05-06T04:48:24.610Z,1.73
2023-05-06T04:50:26.863Z,1.90
2023-05-06T04:52:29.437Z,1.70
2023-05-06T04:54:31.584Z,1.65
2023-05-06T04:56:34.160Z,1.70
2023-05-06T04:58:36.324Z,1.92
2023-05-06T05:00:38.511Z,2.00
2023-05-06T05:02:40.775Z,2.10
2023-05-06T05:04:43.006Z,1.75
2023-05-06T05:06:45.306Z,2.17
2023-05-06T05:08:47.483Z,1.85
2023-05-06T05:10:49.649Z,2.13
2023-05-06T05:12:51.785Z,1.95
2023-05-06T05:14:54.368Z,2.25
2023-05-06T05:16:56.567Z,1.95
2023-05-06T05:19:00.277Z,1.90
2023-05-06T05:21:03.982Z,2.20
2023-05-06T05:23:06.841Z,2.30
2023-05-06T05:25:09.111Z,2.10
2023-05-06T05:27:11.333Z,2.00
2023-05-06T05:29:13.527Z,2.20
2023-05-06T05:31:15.817Z,2.10
2023-05-06T05:33:18.092Z,2.08
2023-05-06T05:35:20.714Z,2.30
2023-05-06T05:37:22.880Z,2.25
2023-05-06T05:39:25.138Z,2.28
2023-05-06T05:41:27.433Z,2.60
2023-05-06T05:43:31.347Z,2.55
2023-05-06T05:45:33.555Z,2.10
2023-05-06T05:47:35.762Z,2.50
2023-05-06T05:49:37.935Z,2.50
2023-05-06T05:51:40.119Z,2.55
2023-05-06T05:53:42.301Z,2.40
2023-05-06T05:55:44.447Z,2.72
2023-05-06T05:57:46.601Z,2.70
2023-05-06T05:59:48.782Z,2.50
2023-05-06T06:01:50.930Z,2.45
2023-05-06T06:03:54.478Z,2.28
2023-05-06T06:05:56.930Z,2.10
2023-05-06T06:08:02.227Z,2.30
2023-05-06T06:10:06.405Z,2.03
2023-05-06T06:14:11.343Z,2.55
2023-05-06T06:16:13.701Z,2.13
2023-05-06T06:18:15.955Z,2.25
2023-05-06T06:20:18.142Z,2.25
2023-05-06T06:22:20.421Z,2.65
2023-05-06T06:24:22.616Z,2.80
2023-05-06T06:26:24.785Z,2.80
2023-05-06T06:28:27.095Z,3.75
2023-05-06T06:30:29.335Z,4.00
2023-05-06T06:32:31.520Z,2.70
2023-05-06T06:34:33.845Z,3.22
2023-05-06T06:36:36.143Z,2.88
2023-05-06T06:38:38.454Z,3.53
2023-05-06T06:40:40.861Z,3.40
2023-05-06T06:42:43.092Z,4.15
2023-05-06T06:44:45.266Z,3.83
2023-05-06T06:46:47.481Z,3.30
2023-05-06T06:48:49.692Z,3.60
2023-05-06T06:50:52.103Z,3.33
2023-05-06T06:52:54.293Z,3.80
2023-05-06T06:54:56.463Z,3.85
2023-05-06T06:56:58.634Z,3.78
2023-05-06T06:59:00.771Z,3.50
2023-05-06T07:01:02.951Z,3.78
2023-05-06T07:03:05.288Z,4.30
2023-05-06T07:05:07.818Z,4.15
2023-05-06T07:09:13.325Z,4.65
2023-05-06T07:11:15.653Z,5.03
2023-05-06T07:13:17.940Z,5.15
2023-05-06T07:15:20.297Z,4.95
2023-05-06T07:17:22.541Z,5.30
2023-05-06T07:19:24.777Z,5.47
2023-05-06T07:21:27.135Z,5.38
2023-05-06T07:23:31.244Z,5.38
2023-05-06T07:25:35.349Z,5.72
2023-05-06T07:27:37.601Z,6.22
2023-05-06T07:29:39.750Z,6.22
2023-05-06T07:31:42.016Z,6.25
2023-05-06T07:33:44.229Z,6.57
2023-05-06T07:35:46.420Z,6.85
2023-05-06T07:37:48.744Z,7.35
2023-05-06T07:39:50.949Z,7.03
2023-05-06T07:41:53.097Z,7.22
2023-05-06T07:43:55.210Z,7.65
2023-05-06T07:46:02.789Z,7.60
2023-05-06T07:48:05.835Z,8.32
2023-05-06T07:50:08.537Z,8.23
2023-05-06T07:52:10.741Z,8.15
2023-05-06T07:54:12.968Z,8.05
2023-05-06T07:56:15.228Z,9.25
2023-05-06T07:58:17.436Z,7.72
2023-05-06T08:00:19.642Z,8.85
2023-05-06T08:02:22.124Z,8.38
2023-05-06T08:04:24.593Z,8.63
2023-05-06T08:06:27.151Z,8.05
2023-05-06T08:08:29.379Z,8.18
2023-05-06T08:10:31.552Z,9.07
2023-05-06T08:12:33.964Z,8.30
2023-05-06T08:14:36.255Z,8.50
2023-05-06T08:16:38.525Z,8.27
2023-05-06T08:18:40.810Z,7.68
2023-05-06T08:20:42.982Z,8.15
2023-05-06T08:22:45.297Z,7.95
2023-05-06T08:24:47.504Z,8.32
2023-05-06T08:26:49.803Z,8.35
2023-05-06T08:28:52.298Z,7.93
2023-05-06T08:30:54.445Z,7.20
2023-05-06T08:32:56.745Z,7.95
2023-05-06T08:35:00.525Z,7.80
2023-05-06T08:37:02.986Z,6.88
2023-05-06T08:39:06.166Z,6.43
2023-05-06T08:41:09.466Z,5.78
2023-05-06T08:43:15.064Z,6.22
2023-05-06T08:45:17.994Z,5.95
2023-05-06T08:47:21.093Z,5.97
2023-05-06T08:49:23.412Z,6.13
2023-05-06T08:51:28.939Z,6.18
2023-05-06T08:53:32.006Z,5.63
2023-05-06T08:55:34.738Z,5.28
2023-05-06T08:59:39.064Z,5.35
2023-05-06T09:01:41.643Z,4.60
2023-05-06T09:03:44.231Z,4.32
2023-05-06T09:05:46.567Z,4.30
2023-05-06T09:07:48.717Z,4.50
2023-05-06T09:09:51.900Z,4.18
2023-05-06T09:11:57.181Z,3.97
2023-05-06T09:14:10.140Z,3.50
2023-05-06T09:16:26.849Z,3.60
2023-05-06T09:18:29.730Z,4.38
2023-05-06T09:22:33.998Z,4.43
2023-05-06T09:24:37.313Z,4.25
2023-05-06T09:26:40.220Z,3.60
2023-05-06T09:28:47.113Z,3.35
2023-05-06T09:30:50.977Z,5.05
2023-05-06T09:32:53.300Z,4.20
2023-05-06T09:34:56.209Z,3.88
2023-05-06T09:36:58.816Z,3.83
2023-05-06T09:39:01.237Z,3.45
2023-05-06T09:41:04.645Z,3.45
2023-05-06T09:43:07.746Z,3.22
2023-05-06T09:45:10.462Z,3.22
2023-05-06T09:47:12.974Z,2.80
2023-05-06T09:49:15.384Z,2.83
2023-05-06T09:51:17.665Z,3.35
2023-05-06T09:53:20.620Z,4.32
2023-05-06T09:55:23.749Z,4.20
2023-05-06T09:57:26.859Z,3.13
2023-05-06T09:59:29.345Z,2.90
2023-05-06T10:01:36.741Z,3.00
2023-05-06T10:03:40.491Z,2.80
2023-05-06T10:05:42.755Z,2.92
2023-05-06T10:07:46.675Z,2.83
2023-05-06T10:09:50.339Z,2.50
2023-05-06T10:11:53.320Z,2.55
2023-05-06T10:13:55.686Z,2.78
2023-05-06T10:15:58.088Z,2.80
2023-05-06T10:18:01.382Z,3.13
2023-05-06T10:20:04.921Z,2.40
2023-05-06T10:22:13.180Z,2.45
2023-05-06T10:24:18.077Z,2.20
2023-05-06T10:26:21.770Z,3.42
2023-05-06T10:28:30.294Z,2.33
2023-05-06T10:30:34.847Z,2.03
2023-05-06T10:32:38.787Z,2.75
2023-05-06T10:34:43.931Z,2.42
2023-05-06T10:36:46.712Z,2.70
2023-05-06T10:40:52.075Z,2.30
2023-05-06T10:44:59.196Z,2.47
2023-05-06T10:47:01.452Z,3.15
2023-05-06T10:49:06.569Z,2.70
2023-05-06T10:51:28.375Z,2.70
2023-05-06T10:53:50.840Z,2.50
2023-05-06T10:56:08.909Z,2.70
2023-05-06T10:58:15.144Z,3.30
2023-05-06T11:00:17.677Z,2.75
2023-05-06T11:02:21.099Z,2.67
2023-05-06T11:04:23.687Z,2.40
2023-05-06T11:06:46.458Z,3.08
2023-05-06T11:08:57.209Z,2.40
2023-05-06T11:10:59.354Z,2.63
2023-05-06T11:13:21.515Z,2.05
2023-05-06T11:15:27.827Z,2.30
2023-05-06T11:17:31.520Z,2.55
2023-05-06T11:19:37.922Z,2.45
2023-05-06T11:21:40.551Z,2.40
2023-05-06T11:23:43.028Z,2.33
2023-05-06T11:25:47.230Z,2.40
2023-05-06T11:27:50.859Z,2.50
2023-05-06T11:29:53.241Z,2.60
2023-05-06T11:31:55.566Z,2.30
2023-05-06T11:34:00.741Z,3.00
2023-05-06T11:36:03.499Z,2.65
2023-05-06T11:40:14.666Z,2.33
2023-05-06T11:42:24.500Z,2.08
2023-05-06T11:44:27.474Z,2.22
2023-05-06T11:46:30.456Z,2.00
2023-05-06T11:48:32.792Z,2.28
2023-05-06T11:50:35.023Z,1.88
2023-05-06T11:52:37.362Z,2.00
2023-05-06T11:54:40.756Z,2.50
2023-05-06T11:56:44.621Z,2.15
2023-05-06T11:58:47.252Z,2.10
2023-05-06T12:02:57.719Z,2.40
2023-05-06T12:05:03.753Z,2.40
2023-05-06T12:07:07.554Z,2.50
2023-05-06T12:09:12.219Z,2.22
2023-05-06T12:11:14.587Z,2.47
2023-05-06T12:13:17.161Z,2.30
2023-05-06T12:15:19.405Z,2.42
2023-05-06T12:17:21.728Z,2.45
2023-05-06T12:19:24.828Z,2.72
2023-05-06T12:21:27.050Z,2.42
2023-05-06T12:23:29.294Z,2.10
2023-05-06T12:25:31.453Z,2.10
2023-05-06T12:27:34.468Z,2.10
2023-05-06T12:29:36.693Z,1.88
2023-05-06T12:31:39.004Z,2.25
2023-05-06T12:33:50.730Z,2.20
2023-05-06T12:35:54.744Z,2.33
2023-05-06T12:37:57.514Z,2.45
2023-05-06T12:42:02.510Z,2.53
2023-05-06T12:44:15.202Z,2.72
2023-05-06T12:46:17.653Z,2.50
2023-05-06T12:48:19.852Z,2.10
2023-05-06T12:50:31.982Z,2.80
2023-05-06T12:52:34.187Z,2.40
2023-05-06T12:54:36.855Z,2.80
2023-05-06T12:58:41.110Z,2.25
2023-05-06T13:00:43.402Z,2.30
2023-05-06T13:02:46.593Z,2.72
2023-05-06T13:04:50.027Z,2.58
2023-05-06T13:06:52.240Z,2.58
2023-05-06T13:08:54.510Z,2.15
2023-05-06T13:10:56.782Z,2.08
2023-05-06T13:12:59.028Z,2.22
2023-05-06T13:15:01.243Z,2.00
2023-05-06T13:17:06.790Z,2.15
2023-05-06T13:19:21.131Z,2.08
2023-05-06T13:21:33.185Z,1.98
2023-05-06T13:23:36.772Z,1.80
2023-05-06T13:25:51.704Z,2.28
2023-05-06T13:28:01.047Z,2.38
2023-05-06T13:30:03.668Z,2.00
2023-05-06T13:32:08.552Z,2.00
2023-05-06T13:34:11.249Z,1.75
2023-05-06T13:36:13.461Z,2.28
2023-05-06T13:38:16.085Z,1.90
2023-05-06T13:40:18.316Z,1.83
2023-05-06T13:42:20.522Z,1.95
2023-05-06T13:44:24.466Z,2.00
2023-05-06T13:46:27.504Z,1.80
2023-05-06T13:48:29.705Z,1.83
2023-05-06T13:50:31.819Z,2.00
2023-05-06T13:52:34.100Z,2.00
2023-05-06T13:54:36.351Z,1.90
2023-05-06T13:56:38.575Z,1.83
2023-05-06T13:58:40.803Z,2.00
2023-05-06T14:00:42.970Z,2.00
2023-05-06T14:02:45.414Z,2.10
2023-05-06T14:04:47.715Z,1.98
2023-05-06T14:06:49.939Z,2.28
2023-05-06T14:08:52.230Z,1.73
2023-05-06T14:10:54.745Z,2.55
2023-05-06T14:12:57.402Z,1.80
2023-05-06T14:17:01.732Z,1.98
2023-05-06T14:19:04.746Z,1.92
2023-05-06T14:21:06.973Z,1.70
2023-05-06T14:23:09.169Z,2.05
2023-05-06T14:25:11.526Z,2.70
2023-05-06T14:27:14.025Z,2.90
2023-05-06T14:29:16.253Z,2.40
2023-05-06T14:31:18.578Z,3.78
2023-05-06T14:33:20.886Z,8.98
2023-05-06T14:35:23.077Z,3.30
2023-05-06T14:37:25.304Z,18.58
2023-05-06T14:39:27.445Z,3.63
2023-05-06T14:41:29.823Z,6.07
2023-05-06T14:43:31.930Z,7.13
2023-05-06T14:45:34.165Z,3.17
2023-05-06T14:47:36.429Z,2.25
2023-05-06T14:49:38.654Z,1.63
2023-05-06T14:51:40.896Z,1.73
2023-05-06T14:53:43.096Z,1.92
2023-05-06T14:55:45.549Z,4.20
2023-05-06T14:57:47.671Z,4.35
2023-05-06T14:59:50.675Z,7.22
2023-05-06T15:01:52.822Z,1.95
2023-05-06T15:03:55.054Z,1.55
2023-05-06T15:05:57.214Z,1.50
2023-05-06T15:07:59.506Z,1.83
2023-05-06T15:10:02.525Z,1.85
2023-05-06T15:12:04.796Z,2.08
2023-05-06T15:14:07.007Z,1.73
2023-05-06T15:16:11.169Z,1.77
2023-05-06T15:18:13.706Z,1.83
2023-05-06T15:20:16.237Z,2.25
2023-05-06T15:22:18.470Z,2.00
2023-05-06T15:24:20.694Z,1.83
2023-05-06T15:26:22.924Z,1.48
2023-05-06T15:28:25.153Z,1.80
2023-05-06T15:30:27.375Z,1.88
2023-05-06T15:32:29.640Z,1.67
2023-05-06T15:34:31.825Z,1.70
2023-05-06T15:36:34.081Z,1.42
2023-05-06T15:38:57.654Z,1.88
2023-05-06T15:41:01.269Z,2.08
2023-05-06T15:43:05.626Z,1.80
2023-05-06T15:45:08.242Z,2.30
2023-05-06T15:47:10.539Z,1.80
2023-05-06T15:49:45.423Z,1.98
2023-05-06T15:51:34.886Z,1.90
2023-05-06T15:53:39.936Z,1.67
2023-05-06T15:55:46.928Z,2.00
2023-05-06T15:57:53.585Z,1.60
2023-05-06T15:59:55.713Z,1.50
2023-05-06T16:02:24.856Z,1.60
2023-05-06T16:04:20.217Z,1.83
2023-05-06T16:06:22.561Z,1.85
2023-05-06T16:08:25.164Z,1.50
2023-05-06T16:10:27.318Z,1.70
2023-05-06T16:12:32.699Z,1.73
2023-05-06T16:14:34.891Z,1.80
2023-05-06T16:16:37.379Z,1.85
2023-05-06T16:20:41.768Z,1.40
2023-05-06T16:22:49.893Z,1.80
2023-05-06T16:24:52.062Z,2.00
2023-05-06T16:26:55.973Z,1.80
2023-05-06T16:28:59.570Z,1.70
2023-05-06T16:31:02.969Z,1.60
2023-05-06T16:33:05.341Z,1.63
2023-05-06T16:35:08.399Z,1.50
2023-05-06T16:37:10.624Z,1.13
2023-05-06T16:39:13.110Z,1.40
2023-05-06T16:41:15.298Z,1.75
2023-05-06T16:43:20.129Z,1.50
2023-05-06T16:45:22.400Z,1.42
2023-05-06T16:47:24.704Z,1.80
2023-05-06T16:49:28.025Z,1.52
2023-05-06T16:51:30.370Z,1.85
2023-05-06T16:53:32.546Z,1.85
2023-05-06T16:55:34.878Z,2.05
2023-05-06T16:57:37.144Z,1.30
2023-05-06T16:59:39.353Z,1.48
2023-05-06T17:01:41.591Z,1.50
2023-05-06T17:03:43.747Z,1.42
2023-05-06T17:05:46.833Z,1.60
2023-05-06T17:07:50.203Z,1.35
2023-05-06T17:09:52.857Z,1.60
2023-05-06T17:11:55.013Z,1.55
2023-05-06T17:13:57.182Z,1.92
2023-05-06T17:15:59.600Z,1.70
2023-05-06T17:18:01.770Z,1.60
2023-05-06T17:20:05.281Z,1.60
2023-05-06T17:22:08.160Z,1.70
2023-05-06T17:24:10.676Z,1.88
2023-05-06T17:26:12.883Z,1.75
2023-05-06T17:28:16.779Z,1.60
2023-05-06T17:30:21.102Z,1.42
2023-05-06T17:32:23.298Z,1.80
2023-05-06T17:34:25.987Z,1.85
2023-05-06T17:38:30.258Z,1.83
2023-05-06T17:40:32.468Z,2.28
2023-05-06T17:42:34.797Z,2.03
2023-05-06T17:44:38.096Z,1.75
2023-05-06T17:46:40.294Z,1.83
2023-05-06T17:48:42.486Z,2.33
2023-05-06T17:50:44.881Z,1.83
2023-05-06T17:52:50.721Z,2.17
2023-05-06T17:55:06.278Z,1.80
2023-05-06T17:57:13.264Z,1.90
2023-05-06T17:59:16.149Z,2.10
2023-05-06T18:01:18.378Z,1.73
2023-05-06T18:03:20.738Z,2.35
2023-05-06T18:05:24.737Z,2.20
2023-05-06T18:07:26.956Z,2.20
2023-05-06T18:09:29.159Z,2.13
2023-05-06T18:11:31.623Z,2.30
2023-05-06T18:13:36.667Z,2.00
2023-05-06T18:15:38.926Z,2.10
2023-05-06T18:17:41.138Z,1.98
2023-05-06T18:19:43.362Z,2.20
2023-05-06T18:21:46.063Z,2.38
2023-05-06T18:23:48.549Z,2.33
2023-05-06T18:25:52.028Z,2.28
2023-05-06T18:27:54.885Z,2.33
2023-05-06T18:29:59.188Z,2.38
2023-05-06T18:32:02.150Z,2.28
2023-05-06T18:34:04.677Z,2.08
2023-05-06T18:36:07.018Z,2.47
2023-05-06T18:38:11.044Z,3.25
2023-05-06T18:40:15.017Z,2.63
2023-05-06T18:42:17.307Z,3.17
2023-05-06T18:44:19.519Z,3.00
2023-05-06T18:46:21.800Z,2.95
2023-05-06T18:48:24.451Z,2.72
2023-05-06T18:50:26.647Z,3.53
2023-05-06T18:52:28.914Z,3.25
2023-05-06T18:54:31.293Z,3.67
2023-05-06T18:56:33.798Z,3.00
2023-05-06T18:58:37.169Z,4.00
2023-05-06T19:00:39.380Z,3.78
2023-05-06T19:02:41.875Z,5.60
2023-05-06T19:04:44.295Z,6.10
2023-05-06T19:06:46.475Z,8.43
2023-05-06T19:08:48.755Z,9.32
2023-05-06T19:10:50.966Z,8.68
2023-05-06T19:12:53.276Z,8.77
2023-05-06T19:14:55.453Z,8.75
2023-05-06T19:16:57.652Z,8.23
2023-05-06T19:18:59.970Z,9.10
2023-05-06T19:21:02.666Z,7.60
2023-05-06T19:25:07.324Z,5.43
2023-05-06T19:27:09.486Z,5.53
2023-05-06T19:29:11.709Z,4.30
2023-05-06T19:31:13.877Z,4.30
2023-05-06T19:33:16.631Z,4.30
2023-05-06T19:37:20.865Z,4.07
2023-05-06T19:39:23.009Z,3.67
2023-05-06T19:41:25.673Z,3.70
2023-05-06T19:43:27.959Z,3.92
2023-05-06T19:45:33.825Z,4.07
2023-05-06T19:47:36.227Z,3.80
2023-05-06T19:49:38.390Z,3.78
2023-05-06T19:51:41.685Z,4.50
2023-05-06T19:53:44.236Z,3.72
2023-05-06T19:55:46.390Z,3.75
2023-05-06T19:57:48.590Z,4.40
2023-05-06T19:59:50.725Z,4.00
2023-05-06T20:01:54.458Z,3.83
2023-05-06T20:03:56.842Z,4.53
2023-05-06T20:05:59.521Z,4.47
2023-05-06T20:08:01.686Z,4.35
2023-05-06T20:10:03.962Z,4.30
2023-05-06T20:12:06.537Z,4.43
2023-05-06T20:14:08.778Z,4.13
2023-05-06T20:16:11.085Z,4.63
2023-05-06T20:18:13.581Z,4.53
2023-05-06T20:20:15.786Z,4.57
2023-05-06T20:22:17.934Z,4.05
2023-05-06T20:24:20.176Z,4.88
2023-05-06T20:26:23.869Z,4.93
2023-05-06T20:28:27.059Z,4.57
2023-05-06T20:30:29.264Z,4.70
2023-05-06T20:32:31.879Z,4.40
2023-05-06T20:34:34.045Z,4.30
2023-05-06T20:36:36.202Z,4.95
2023-05-06T20:38:38.381Z,4.32
2023-05-06T20:40:40.672Z,5.13
2023-05-06T20:42:42.842Z,5.38
2023-05-06T20:44:44.988Z,4.72
2023-05-06T20:46:47.128Z,5.15
2023-05-06T20:48:51.467Z,4.82
2023-05-06T20:50:54.844Z,5.05
2023-05-06T20:52:57.157Z,5.53
2023-05-06T20:54:59.481Z,4.97
2023-05-06T20:57:02.537Z,4.85
2023-05-06T20:59:05.838Z,4.75
2023-05-06T21:01:08.118Z,5.78
2023-05-06T21:03:10.444Z,5.28
2023-05-06T21:05:12.858Z,5.55
2023-05-06T21:07:15.267Z,5.05
2023-05-06T21:09:18.378Z,5.80
2023-05-06T21:11:20.646Z,6.05
2023-05-06T21:13:22.813Z,6.00
2023-05-06T21:15:25.054Z,5.63
2023-05-06T21:17:27.578Z,6.05
2023-05-06T21:19:29.929Z,5.80
2023-05-06T21:21:32.564Z,6.97
2023-05-06T21:23:35.478Z,6.15
2023-05-06T21:25:37.617Z,5.72
2023-05-06T21:27:39.803Z,6.40
2023-05-06T21:29:42.010Z,6.13
2023-05-06T21:31:44.554Z,6.25
2023-05-06T21:33:46.908Z,6.43
2023-05-06T21:35:49.284Z,6.38
2023-05-06T21:37:51.597Z,6.03
2023-05-06T21:39:54.134Z,6.05
2023-05-06T21:41:56.495Z,6.75
2023-05-06T21:43:58.658Z,6.97
2023-05-06T21:46:03.586Z,6.10
2023-05-06T21:48:05.975Z,6.65
2023-05-06T21:50:08.351Z,6.82
2023-05-06T21:52:10.633Z,6.72
2023-05-06T21:54:12.906Z,6.53
2023-05-06T21:56:15.101Z,6.80
2023-05-06T21:58:17.304Z,6.75
2023-05-06T22:00:19.540Z,6.30
2023-05-06T22:02:21.842Z,6.13
2023-05-06T22:04:24.039Z,6.60
2023-05-06T22:06:26.503Z,6.88
2023-05-06T22:08:29.886Z,7.05
2023-05-06T22:10:32.091Z,6.43
2023-05-06T22:12:36.380Z,7.05
2023-05-06T22:14:41.549Z,6.68
2023-05-06T22:16:45.744Z,6.45
2023-05-06T22:18:48.242Z,6.10
2023-05-06T22:20:52.505Z,6.28
2023-05-06T22:22:54.714Z,7.38
2023-05-06T22:24:56.892Z,6.95
2023-05-06T22:26:59.525Z,6.80
2023-05-06T22:29:01.712Z,7.00
2023-05-06T22:31:03.863Z,7.07
2023-05-06T22:33:06.160Z,6.90
2023-05-06T22:35:09.036Z,6.65
2023-05-06T22:37:11.471Z,7.00
2023-05-06T22:39:13.738Z,6.50
2023-05-06T22:41:15.936Z,6.95
2023-05-06T22:43:18.108Z,6.82
2023-05-06T22:45:20.407Z,7.32
2023-05-06T22:47:22.634Z,7.20
2023-05-06T22:49:28.245Z,7.03
2023-05-06T22:51:32.150Z,7.50
2023-05-06T22:53:34.350Z,7.15
2023-05-06T22:55:38.383Z,7.40
2023-05-06T22:57:40.744Z,7.00
2023-05-06T22:59:42.901Z,7.28
2023-05-06T23:01:45.196Z,7.47
2023-05-06T23:03:47.429Z,7.10
2023-05-06T23:05:49.838Z,6.63
2023-05-06T23:07:51.977Z,6.45
2023-05-06T23:09:54.180Z,7.25
2023-05-06T23:11:56.369Z,6.70
2023-05-06T23:13:58.508Z,7.22
2023-05-06T23:16:00.972Z,6.90
2023-05-06T23:18:03.207Z,6.55
2023-05-06T23:20:05.920Z,7.30
2023-05-06T23:22:08.203Z,7.25
2023-05-06T23:24:10.497Z,7.50
2023-05-06T23:26:12.678Z,6.82
2023-05-06T23:28:14.937Z,6.68
2023-05-06T23:30:17.106Z,7.00
2023-05-06T23:32:19.256Z,6.90
2023-05-06T23:34:21.422Z,6.97
2023-05-06T23:36:23.555Z,6.38
2023-05-06T23:38:25.729Z,6.13
2023-05-06T23:40:27.879Z,6.88
2023-05-06T23:42:30.072Z,6.70
2023-05-06T23:44:32.167Z,6.45
2023-05-06T23:46:34.350Z,6.65
2023-05-06T23:48:38.180Z,5.95
2023-05-06T23:50:40.356Z,6.18
2023-05-06T23:52:42.599Z,6.30
2023-05-06T23:54:44.786Z,6.70
2023-05-06T23:56:47.290Z,6.70
2023-05-06T23:58:49.837Z,6.20
